Terminal Aerodrome Forecast
Issued by NWS

Current Version | Previous Version | Text Only | Print | Product List | Glossary Off
Versions: 1 2 3 4 5 6 7 8 9 10 11 12 13 14 15 16 17 18 19 20 21 22 23

000
FTUS41 KRLX 250852 AAA
TAFCKB
TAF AMD
KCKB 250852Z 2509/2606 00000KT P6SM SKC
     FM251000 00000KT 1/4SM FG VV001
     FM251300 00000KT 5SM BR SCT250
     FM251400 00000KT P6SM SCT250=

USA.gov is the U.S. government's official web portal to all federal, state and local government web resources and services.